»·PEaware :: N8432D KSNA-KTNP

N8432D :: KSNA-KTNP

FLIGHT INFORMATION

Flight Status: Arrived
Operator: Privately registered:
United States
More flights under this callsign
Pilot: Joaquin J. (6581)
Aircraft: PIPER PA-31/31P NAVAJO CHIEFTAIN
(PA31)
More flights by this aircraft type
Origin: KSNA John Wayne-Orange Co
United States
Destination: KTNP Twentynine Palms
United States
More flights between these airports :: More routes between these airports
Route: MUSEL8 TRM V208 TNP
File this flight plan on PilotEdge
Remarks:
Altitude:
(Current/Filed)
13,000ft
Speed:
(Current/Filed)
160kts
Departed: 04-Mar-23 11:14 AM
Arrived: 04-Mar-23 12:05 PM
Distance/Time
Traveled:
100nm/0:51
Distance/Time
To Go:
Arrived

Flight Plot

Page will automatically refresh every two minutes.

Flight plan parsing failed; only flown route is shown


Map Options




Map Legend


Flown Route
Filed Route
Departure Airport
Arrival Airport
Navaid (VOR, NDB)
Fix

Horizontal Profiles

Position Reports

Time Latitude Longitude Heading Altitude Ground
Speed
04-Mar-23 10:40 33.672480 -117.867195 210 60ft 0kts
04-Mar-23 10:41 33.672480 -117.867195 210 60ft 0kts
04-Mar-23 10:42 33.672480 -117.867195 210 60ft 0kts
04-Mar-23 10:43 33.672480 -117.867195 210 60ft 0kts
04-Mar-23 10:44 33.672480 -117.867195 210 60ft 0kts
04-Mar-23 10:45 33.672480 -117.867195 210 60ft 0kts
04-Mar-23 10:46 33.672480 -117.867195 210 60ft 0kts
04-Mar-23 10:47 33.672480 -117.867195 210 60ft 0kts
04-Mar-23 10:48 33.672480 -117.867195 210 60ft 0kts
04-Mar-23 10:50 33.672480 -117.867195 210 60ft 0kts
04-Mar-23 10:51 33.672480 -117.867195 210 60ft 0kts
04-Mar-23 10:52 33.672480 -117.867195 210 60ft 0kts
04-Mar-23 10:53 33.672480 -117.867195 210 60ft 0kts
04-Mar-23 10:54 33.672480 -117.867195 210 60ft 0kts
04-Mar-23 10:55 33.672480 -117.867195 210 60ft 0kts
04-Mar-23 10:56 33.672480 -117.867195 210 60ft 0kts
04-Mar-23 10:57 33.672480 -117.867195 210 60ft 0kts
04-Mar-23 10:58 33.672480 -117.867195 210 60ft 0kts
04-Mar-23 10:59 33.672480 -117.867195 210 60ft 0kts
04-Mar-23 11:00 33.672480 -117.867195 210 60ft 0kts
04-Mar-23 11:01 33.672480 -117.867195 210 60ft 0kts
04-Mar-23 11:02 33.672480 -117.867195 210 60ft 0kts
04-Mar-23 11:03 33.672480 -117.867195 210 60ft 0kts
04-Mar-23 11:04 33.672480 -117.867195 210 60ft 0kts
04-Mar-23 11:05 33.672333 -117.867468 305 60ft 0kts
04-Mar-23 11:06 33.672534 -117.867767 341 60ft 8kts
04-Mar-23 11:07 33.673186 -117.867937 205 60ft 0kts
04-Mar-23 11:08 33.673186 -117.867937 205 60ft 0kts
04-Mar-23 11:09 33.673186 -117.867937 205 60ft 0kts
04-Mar-23 11:10 33.673077 -117.867689 87 60ft 0kts
04-Mar-23 11:11 33.675101 -117.866474 27 60ft 29kts
04-Mar-23 11:12 33.679954 -117.863667 294 60ft 0kts
04-Mar-23 11:13 33.680410 -117.864675 301 60ft 14kts
04-Mar-23 11:14 33.668744 -117.873517 206 240ft 110kts
04-Mar-23 11:14 33.642418 -117.888485 188 1126ft 126kts
04-Mar-23 11:16 33.602146 -117.893162 183 2140ft 128kts
04-Mar-23 11:17 33.575402 -117.881417 93 3351ft 111kts
04-Mar-23 11:18 33.580067 -117.841147 82 4172ft 130kts
04-Mar-23 11:18 33.582931 -117.807206 84 5247ft 103kts
04-Mar-23 11:19 33.587493 -117.766343 87 6005ft 132kts
04-Mar-23 11:21 33.589118 -117.711678 88 6837ft 154kts
04-Mar-23 11:22 33.591064 -117.654663 88 6960ft 187kts
04-Mar-23 11:22 33.592651 -117.601819 88 6954ft 186kts
04-Mar-23 11:23 33.594349 -117.540952 88 6960ft 181kts
04-Mar-23 11:24 33.596157 -117.480932 88 6956ft 179kts
04-Mar-23 11:25 33.597932 -117.421498 89 6988ft 175kts
04-Mar-23 11:27 33.599677 -117.356121 88 7826ft 163kts
04-Mar-23 11:27 33.600965 -117.311309 89 8474ft 167kts
04-Mar-23 11:28 33.602504 -117.255561 89 9330ft 168kts
04-Mar-23 11:29 33.604054 -117.199390 90 10213ft 169kts
04-Mar-23 11:30 33.605585 -117.142899 89 11103ft 170kts
04-Mar-23 11:31 33.607271 -117.082503 89 11688ft 194kts
04-Mar-23 11:32 33.609084 -117.015316 89 12198ft 208kts
04-Mar-23 11:33 33.610891 -116.944458 90 12698ft 215kts
04-Mar-23 11:34 33.612766 -116.871430 88 12966ft 224kts
04-Mar-23 11:35 33.614583 -116.796807 89 12985ft 225kts
04-Mar-23 11:36 33.616384 -116.721681 90 12989ft 224kts
04-Mar-23 11:37 33.618063 -116.647788 89 13090ft 223kts
04-Mar-23 11:38 33.619780 -116.573098 89 13099ft 224kts
04-Mar-23 11:39 33.621429 -116.498980 88 13111ft 221kts
04-Mar-23 11:40 33.654199 -116.440950 39 13122ft 212kts
04-Mar-23 11:41 33.692719 -116.386991 41 13125ft 212kts
04-Mar-23 11:42 33.729770 -116.333215 43 13121ft 211kts
04-Mar-23 11:43 33.766970 -116.278616 42 13122ft 209kts
04-Mar-23 11:44 33.804111 -116.224344 41 13133ft 210kts
04-Mar-23 11:45 33.840789 -116.169758 41 13136ft 208kts
04-Mar-23 11:46 33.877440 -116.116225 41 13137ft 206kts
04-Mar-23 11:47 33.914449 -116.061875 43 12659ft 220kts
04-Mar-23 11:48 33.953118 -116.004908 44 12035ft 206kts
04-Mar-23 11:49 33.990622 -115.949655 45 10731ft 219kts
04-Mar-23 11:50 34.029134 -115.892641 46 9331ft 217kts
04-Mar-23 11:51 34.069199 -115.835313 46 7276ft 223kts
04-Mar-23 11:52 34.104398 -115.788627 70 7205ft 166kts
04-Mar-23 11:53 34.112798 -115.733664 92 7095ft 144kts
04-Mar-23 11:54 34.097883 -115.710860 230 6317ft 130kts
04-Mar-23 11:55 34.112032 -115.752134 299 4881ft 142kts
04-Mar-23 11:56 34.115355 -115.797436 282 3515ft 138kts
04-Mar-23 11:57 34.130657 -115.837890 295 2859ft 119kts
04-Mar-23 11:58 34.141012 -115.871713 274 2522ft 98kts
04-Mar-23 11:59 34.146650 -115.903664 279 2499ft 94kts
04-Mar-23 12:00 34.155241 -115.935904 274 2479ft 96kts
04-Mar-23 12:01 34.160467 -115.968683 250 2432ft 100kts
04-Mar-23 12:02 34.138633 -115.968971 123 2161ft 97kts
04-Mar-23 12:03 34.134386 -115.941865 84 1821ft 48kts
04-Mar-23 12:04 34.135271 -115.935545 266 1789ft 6kts
04-Mar-23 12:05 34.135232 -115.938951 270 1805ft 13kts
04-Mar-23 12:06 34.136092 -115.941985 285 1816ft 8kts
04-Mar-23 12:07 34.135884 -115.942166 184 1817ft 0kts
04-Mar-23 12:08 34.135884 -115.942166 184 1817ft 0kts
04-Mar-23 12:09 34.135884 -115.942166 184 1817ft 0kts
04-Mar-23 12:10 34.135884 -115.942166 184 1817ft 0kts
04-Mar-23 12:11 34.135884 -115.942166 184 1817ft 0kts
04-Mar-23 12:12 34.135884 -115.942166 184 1817ft 0kts
04-Mar-23 12:13 34.135884 -115.942166 184 1817ft 0kts
04-Mar-23 12:14 34.135884 -115.942166 184 1817ft 0kts

Navigation Log

Ident Type
Flight plan parsing failed, navigation log unavailable